Terminal Aerodrome Forecast
Issued by NWS

Home | Current Version | Previous Version | Text Only | Print | Product List | Glossary On
Versions: 1 2 3 4 5 6 7 8 9 10 11 12 13 14
000
FTUS45 KLKN 211120
TAFEKO
TAF
KEKO 211120Z 2112/2212 06005KT P6SM SCT150 SCT200
     FM212200 25008KT P6SM SCT130 SCT220
     FM220100 32011KT P6SM BKN130
     FM220500 07007KT P6SM BKN130 BKN220=

USA.gov is the U.S. government's official web portal to all federal, state and local government web resources and services.